createdAt,value
2019-05-12T00:00:31.029Z,0.72
2019-05-12T00:02:59.506Z,0.78
2019-05-12T00:05:28.127Z,1.00
2019-05-12T00:07:58.352Z,0.90
2019-05-12T00:10:28.258Z,0.60
2019-05-12T00:12:58.263Z,0.70
2019-05-12T00:15:27.970Z,0.60
2019-05-12T00:17:58.724Z,0.72
2019-05-12T00:20:28.394Z,0.68
2019-05-12T00:22:58.689Z,0.62
2019-05-12T00:25:28.361Z,0.50
2019-05-12T00:27:58.644Z,0.70
2019-05-12T00:30:38.833Z,0.80
2019-05-12T00:33:09.310Z,0.65
2019-05-12T00:35:38.200Z,0.60
2019-05-12T00:38:09.134Z,0.47
2019-05-12T00:40:39.242Z,0.70
2019-05-12T00:43:08.961Z,0.50
2019-05-12T00:45:38.716Z,0.50
2019-05-12T00:48:09.069Z,0.30
2019-05-12T00:50:38.179Z,0.50
2019-05-12T00:53:08.940Z,0.30
2019-05-12T00:55:38.021Z,0.30
2019-05-12T00:58:08.474Z,0.30
2019-05-12T01:00:40.590Z,0.30
2019-05-12T01:03:08.688Z,0.20
2019-05-12T01:05:38.343Z,0.30
2019-05-12T01:08:09.045Z,0.40
2019-05-12T01:10:38.959Z,0.30
2019-05-12T01:13:08.526Z,0.50
2019-05-12T01:15:37.818Z,0.28
2019-05-12T01:18:09.250Z,0.40
2019-05-12T01:20:38.840Z,0.40
2019-05-12T01:23:08.540Z,0.37
2019-05-12T01:25:58.513Z,0.40
2019-05-12T01:28:27.838Z,0.40
2019-05-12T01:30:59.216Z,0.37
2019-05-12T01:33:27.774Z,0.20
2019-05-12T01:35:58.457Z,0.40
2019-05-12T01:38:28.559Z,0.40
2019-05-12T01:40:58.408Z,0.35
2019-05-12T01:43:27.773Z,0.40
2019-05-12T01:45:58.671Z,0.20
2019-05-12T01:48:28.546Z,0.57
2019-05-12T01:50:57.982Z,0.37
2019-05-12T01:53:28.527Z,0.35
2019-05-12T01:55:58.421Z,0.50
2019-05-12T01:58:27.796Z,0.40
2019-05-12T02:00:58.698Z,0.40
2019-05-12T02:03:28.405Z,0.55
2019-05-12T02:06:01.088Z,0.40
2019-05-12T02:08:41.418Z,0.40
2019-05-12T02:11:28.875Z,0.40
2019-05-12T02:13:57.973Z,0.37
2019-05-12T02:16:28.188Z,0.40
2019-05-12T02:18:58.287Z,0.30
2019-05-12T02:21:27.955Z,0.50
2019-05-12T02:23:58.297Z,0.50
2019-05-12T02:26:28.915Z,0.42
2019-05-12T02:29:08.870Z,0.35
2019-05-12T02:31:39.675Z,0.40
2019-05-12T02:34:07.299Z,0.50
2019-05-12T02:36:35.763Z,0.50
2019-05-12T02:39:06.746Z,0.40
2019-05-12T02:41:35.206Z,0.53
2019-05-12T02:44:05.407Z,0.50
2019-05-12T02:46:34.827Z,0.50
2019-05-12T02:49:04.858Z,0.37
2019-05-12T02:51:35.144Z,0.60
2019-05-12T02:54:05.530Z,0.60
2019-05-12T02:56:35.444Z,0.53
2019-05-12T02:59:05.414Z,0.45
2019-05-12T03:01:34.944Z,0.80
2019-05-12T03:04:05.750Z,0.37
2019-05-12T03:06:36.086Z,0.37
2019-05-12T03:09:07.575Z,0.40
2019-05-12T03:11:36.714Z,0.57
2019-05-12T03:14:06.137Z,0.62
2019-05-12T03:16:35.062Z,0.68
2019-05-12T03:19:04.858Z,0.68
2019-05-12T03:21:35.276Z,0.50
2019-05-12T03:24:06.066Z,0.50
2019-05-12T03:26:34.831Z,0.60
2019-05-12T03:29:05.817Z,0.47
2019-05-12T03:31:38.669Z,0.70
2019-05-12T03:34:09.829Z,0.55
2019-05-12T03:36:41.252Z,0.40
2019-05-12T03:39:06.067Z,0.50
2019-05-12T03:41:34.917Z,0.68
2019-05-12T03:44:05.159Z,0.45
2019-05-12T03:46:35.250Z,0.57
2019-05-12T03:49:05.262Z,0.95
2019-05-12T03:51:34.968Z,0.50
2019-05-12T03:54:04.716Z,0.65
2019-05-12T03:56:34.630Z,0.60
2019-05-12T03:59:05.006Z,0.50
2019-05-12T04:01:36.265Z,0.80
2019-05-12T04:04:05.128Z,0.57
2019-05-12T04:06:34.606Z,0.60
2019-05-12T04:09:08.230Z,0.65
2019-05-12T04:11:36.951Z,0.70
2019-05-12T04:14:05.965Z,0.80
2019-05-12T04:16:36.378Z,0.88
2019-05-12T04:19:05.599Z,0.70
2019-05-12T04:21:35.347Z,0.90
2019-05-12T04:24:05.447Z,0.85
2019-05-12T04:26:36.261Z,0.95
2019-05-12T04:29:05.130Z,1.10
2019-05-12T04:31:35.546Z,2.80
2019-05-12T04:34:05.191Z,3.42
2019-05-12T04:36:35.557Z,3.87
2019-05-12T04:39:06.712Z,3.20
2019-05-12T04:41:36.512Z,3.98
2019-05-12T04:44:06.054Z,4.08
2019-05-12T04:46:34.928Z,4.42
2019-05-12T04:49:05.207Z,4.72
2019-05-12T04:51:34.994Z,5.20
2019-05-12T04:54:05.843Z,4.40
2019-05-12T04:56:35.769Z,4.47
2019-05-12T04:59:04.964Z,3.40
2019-05-12T05:01:34.918Z,2.83
2019-05-12T05:04:05.494Z,2.55
2019-05-12T05:06:34.316Z,1.62
2019-05-12T05:09:05.162Z,1.32
2019-05-12T05:11:34.522Z,1.22
2019-05-12T05:14:04.270Z,0.90
2019-05-12T05:16:34.592Z,0.72
2019-05-12T05:19:03.683Z,0.60
2019-05-12T05:21:34.262Z,0.60
2019-05-12T05:24:03.812Z,0.40
2019-05-12T05:26:36.597Z,0.40
2019-05-12T05:29:04.350Z,0.50
2019-05-12T05:31:33.658Z,0.50
2019-05-12T05:34:04.679Z,0.40
2019-05-12T05:36:34.536Z,0.20
2019-05-12T05:39:04.497Z,0.33
2019-05-12T05:41:34.511Z,0.40
2019-05-12T05:44:03.218Z,0.30
2019-05-12T05:46:33.701Z,0.20
2019-05-12T05:49:04.063Z,0.40
2019-05-12T05:51:33.476Z,0.45
2019-05-12T05:54:03.975Z,0.30
2019-05-12T05:56:41.817Z,0.30
2019-05-12T05:59:04.522Z,0.40
2019-05-12T06:01:34.497Z,0.20
2019-05-12T06:04:04.442Z,0.33
2019-05-12T06:06:34.158Z,0.30
2019-05-12T06:09:04.064Z,0.28
2019-05-12T06:11:34.467Z,0.28
2019-05-12T06:14:11.076Z,0.40
2019-05-12T06:16:34.086Z,0.20
2019-05-12T06:19:03.468Z,0.30
2019-05-12T06:21:36.399Z,0.20
2019-05-12T06:24:03.558Z,0.30
2019-05-12T06:26:34.927Z,0.30
2019-05-12T06:29:04.238Z,0.30
2019-05-12T06:31:33.430Z,0.40
2019-05-12T06:34:06.411Z,0.33
2019-05-12T06:36:33.993Z,0.25
2019-05-12T06:39:04.265Z,0.20
2019-05-12T06:41:33.692Z,0.30
2019-05-12T06:44:03.719Z,0.40
2019-05-12T06:46:34.286Z,0.40
2019-05-12T06:49:10.203Z,0.37
2019-05-12T06:51:33.807Z,0.50
2019-05-12T06:54:10.016Z,0.30
2019-05-12T06:56:34.247Z,0.30
2019-05-12T06:59:09.741Z,0.25
2019-05-12T07:01:34.632Z,0.30
2019-05-12T07:04:06.695Z,0.40
2019-05-12T07:06:33.896Z,0.30
2019-05-12T07:09:09.207Z,0.60
2019-05-12T07:11:42.456Z,0.37
2019-05-12T07:14:07.766Z,0.45
2019-05-12T07:16:46.534Z,0.30
2019-05-12T07:19:21.220Z,0.47
2019-05-12T07:21:45.058Z,0.33
2019-05-12T07:24:14.220Z,0.40
2019-05-12T07:26:44.238Z,0.40
2019-05-12T07:29:13.407Z,0.37
2019-05-12T07:31:44.108Z,0.50
2019-05-12T07:34:13.669Z,0.40
2019-05-12T07:36:44.177Z,0.50
2019-05-12T07:39:13.610Z,0.40
2019-05-12T07:41:50.606Z,0.45
2019-05-12T07:44:14.226Z,0.30
2019-05-12T07:46:45.714Z,0.33
2019-05-12T07:49:14.161Z,0.50
2019-05-12T07:51:44.680Z,0.33
2019-05-12T07:54:14.244Z,0.40
2019-05-12T07:56:44.164Z,0.40
2019-05-12T07:59:13.582Z,0.30
2019-05-12T08:01:48.167Z,0.30
2019-05-12T08:04:13.515Z,0.40
2019-05-12T08:06:46.785Z,0.42
2019-05-12T08:09:13.668Z,0.30
2019-05-12T08:11:43.416Z,0.57
2019-05-12T08:14:22.046Z,0.42
2019-05-12T08:16:43.697Z,0.37
2019-05-12T08:19:17.240Z,0.40
2019-05-12T08:21:43.901Z,0.20
2019-05-12T08:24:14.173Z,0.30
2019-05-12T08:26:43.549Z,0.40
2019-05-12T08:29:16.995Z,0.20
2019-05-12T08:31:44.094Z,0.33
2019-05-12T08:34:13.670Z,0.47
2019-05-12T08:36:45.043Z,0.33
2019-05-12T08:39:21.280Z,0.40
2019-05-12T08:41:44.251Z,0.37
2019-05-12T08:44:13.512Z,0.20
2019-05-12T08:46:43.129Z,0.40
2019-05-12T08:49:14.235Z,0.30
2019-05-12T08:51:44.251Z,0.33
2019-05-12T08:54:14.193Z,0.25
2019-05-12T08:56:43.623Z,0.20
2019-05-12T08:59:17.558Z,0.30
2019-05-12T09:01:43.858Z,0.30
2019-05-12T09:04:17.999Z,0.28
2019-05-12T09:06:43.440Z,0.50
2019-05-12T09:09:13.854Z,0.30
2019-05-12T09:11:43.899Z,0.20
2019-05-12T09:14:14.446Z,0.30
2019-05-12T09:16:44.000Z,0.30
2019-05-12T09:19:16.675Z,0.20
2019-05-12T09:21:44.270Z,0.20
2019-05-12T09:24:15.573Z,1.22
2019-05-12T09:26:43.393Z,0.30
2019-05-12T09:29:13.832Z,0.10
2019-05-12T09:31:43.932Z,0.20
2019-05-12T09:34:15.908Z,0.50
2019-05-12T09:36:44.095Z,0.40
2019-05-12T09:39:14.137Z,0.30
2019-05-12T09:41:48.582Z,0.40
2019-05-12T09:44:14.049Z,0.80
2019-05-12T09:46:44.055Z,0.45
2019-05-12T09:49:14.263Z,0.40
2019-05-12T09:51:45.232Z,0.28
2019-05-12T09:54:13.916Z,0.40
2019-05-12T09:56:44.137Z,0.40
2019-05-12T09:59:20.840Z,0.30
2019-05-12T10:01:45.732Z,0.50
2019-05-12T10:04:16.182Z,0.30
2019-05-12T10:06:44.428Z,0.42
2019-05-12T10:09:15.613Z,0.30
2019-05-12T10:11:44.709Z,0.30
2019-05-12T10:14:13.962Z,0.50
2019-05-12T10:16:45.600Z,0.30
2019-05-12T10:19:14.671Z,0.60
2019-05-12T10:21:43.995Z,0.80
2019-05-12T10:24:12.456Z,0.68
2019-05-12T10:26:41.074Z,0.60
2019-05-12T10:29:18.791Z,0.70
2019-05-12T10:31:41.063Z,0.60
2019-05-12T10:34:23.967Z,0.65
2019-05-12T10:36:53.849Z,0.65
2019-05-12T10:39:24.103Z,0.62
2019-05-12T10:41:53.952Z,0.42
2019-05-12T10:44:22.032Z,0.50
2019-05-12T10:46:53.799Z,0.60
2019-05-12T10:49:23.334Z,0.30
2019-05-12T10:51:53.801Z,0.37
2019-05-12T10:54:23.952Z,0.60
2019-05-12T10:56:54.470Z,0.45
2019-05-12T10:59:32.402Z,0.60
2019-05-12T11:01:53.938Z,0.70
2019-05-12T11:04:33.265Z,0.68
2019-05-12T11:06:53.790Z,1.10
2019-05-12T11:09:29.428Z,0.85
2019-05-12T11:11:54.086Z,0.40
2019-05-12T11:14:26.563Z,0.57
2019-05-12T11:16:54.243Z,0.40
2019-05-12T11:19:22.641Z,0.55
2019-05-12T11:21:53.435Z,0.30
2019-05-12T11:24:21.147Z,0.33
2019-05-12T11:26:49.475Z,0.50
2019-05-12T11:29:17.801Z,0.93
2019-05-12T11:31:46.414Z,1.10
2019-05-12T11:34:14.737Z,0.80
2019-05-12T11:36:43.766Z,0.55
2019-05-12T11:39:14.122Z,0.80
2019-05-12T11:41:44.244Z,0.40
2019-05-12T11:44:13.204Z,0.40
2019-05-12T11:46:44.084Z,0.30
2019-05-12T11:49:13.734Z,0.20
2019-05-12T11:51:41.716Z,0.40
2019-05-12T11:54:10.913Z,0.33
2019-05-12T11:56:40.408Z,0.30
2019-05-12T11:59:09.999Z,0.30
2019-05-12T12:01:39.692Z,0.30
2019-05-12T12:04:08.413Z,0.50
2019-05-12T12:06:36.820Z,0.37
2019-05-12T12:09:09.276Z,0.40
2019-05-12T12:11:37.126Z,0.30
2019-05-12T12:14:10.555Z,0.30
2019-05-12T12:16:44.280Z,0.68
2019-05-12T12:19:06.655Z,0.30
2019-05-12T12:21:35.281Z,0.40
2019-05-12T12:24:05.246Z,0.37
2019-05-12T12:26:37.030Z,0.45
2019-05-12T12:29:03.662Z,0.53
2019-05-12T12:31:37.233Z,0.30
2019-05-12T12:34:03.768Z,1.55
2019-05-12T12:36:34.025Z,0.30
2019-05-12T12:39:04.096Z,0.40
2019-05-12T12:41:34.052Z,0.40
2019-05-12T12:44:04.453Z,0.50
2019-05-12T12:46:33.791Z,0.57
2019-05-12T12:49:06.512Z,0.30
2019-05-12T12:51:34.231Z,0.40
2019-05-12T12:54:03.271Z,0.45
2019-05-12T12:56:33.974Z,0.37
2019-05-12T12:59:10.108Z,0.62
2019-05-12T13:01:33.516Z,0.30
2019-05-12T13:04:04.690Z,0.40
2019-05-12T13:06:34.406Z,0.30
2019-05-12T13:09:08.050Z,0.40
2019-05-12T13:11:34.811Z,0.40
2019-05-12T13:14:04.117Z,0.35
2019-05-12T13:16:34.198Z,0.35
2019-05-12T13:19:03.844Z,0.40
2019-05-12T13:21:33.623Z,0.30
2019-05-12T13:24:03.638Z,0.40
2019-05-12T13:26:32.157Z,0.30
2019-05-12T13:29:00.590Z,0.40
2019-05-12T13:31:29.021Z,0.30
2019-05-12T13:33:57.376Z,0.50
2019-05-12T13:36:29.609Z,0.40
2019-05-12T13:38:55.847Z,0.30
2019-05-12T13:41:24.140Z,0.20
2019-05-12T13:43:55.945Z,0.40
2019-05-12T13:46:23.891Z,0.90
2019-05-12T13:48:57.693Z,0.40
2019-05-12T13:51:24.153Z,0.30
2019-05-12T13:53:52.849Z,0.37
2019-05-12T13:56:25.336Z,0.40
2019-05-12T13:58:53.545Z,0.40
2019-05-12T14:01:21.326Z,0.50
2019-05-12T14:03:50.871Z,0.30
2019-05-12T14:06:23.227Z,0.50
2019-05-12T14:08:49.812Z,0.45
2019-05-12T14:11:18.932Z,0.40
2019-05-12T14:13:48.531Z,0.50
2019-05-12T14:16:16.946Z,0.30
2019-05-12T14:18:45.435Z,0.40
2019-05-12T14:21:14.136Z,0.42
2019-05-12T14:23:43.623Z,0.35
2019-05-12T14:26:13.667Z,0.30
2019-05-12T14:28:45.622Z,0.57
2019-05-12T14:31:24.472Z,0.70
2019-05-12T14:33:44.233Z,0.60
2019-05-12T14:36:13.705Z,0.55
2019-05-12T14:38:42.924Z,0.60
2019-05-12T14:41:12.328Z,0.72
2019-05-12T14:43:41.361Z,0.40
2019-05-12T14:46:10.514Z,0.45
2019-05-12T14:48:40.140Z,0.50
2019-05-12T14:51:09.278Z,0.45
2019-05-12T14:53:38.529Z,0.50
2019-05-12T14:56:09.629Z,0.30
2019-05-12T14:58:37.971Z,0.60
2019-05-12T15:01:06.423Z,0.50
2019-05-12T15:03:34.833Z,0.40
2019-05-12T15:06:03.809Z,0.33
2019-05-12T15:08:37.020Z,0.50
2019-05-12T15:11:03.986Z,0.50
2019-05-12T15:13:34.289Z,0.40
2019-05-12T15:16:02.729Z,0.65
2019-05-12T15:18:31.124Z,0.50
2019-05-12T15:20:59.468Z,0.80
2019-05-12T15:23:32.347Z,0.40
2019-05-12T15:25:57.946Z,0.40
2019-05-12T15:28:26.336Z,0.57
2019-05-12T15:30:54.702Z,0.50
2019-05-12T15:33:24.356Z,0.40
2019-05-12T15:35:54.631Z,0.30
2019-05-12T15:38:23.945Z,0.35
2019-05-12T15:40:53.756Z,0.45
2019-05-12T15:43:24.455Z,0.47
2019-05-12T15:45:57.410Z,0.57
2019-05-12T15:48:25.678Z,0.40
2019-05-12T15:50:54.014Z,0.50
2019-05-12T15:53:26.704Z,0.50
2019-05-12T15:55:54.294Z,0.33
2019-05-12T15:58:24.702Z,0.50
2019-05-12T16:00:54.429Z,0.70
2019-05-12T16:03:23.627Z,0.55
2019-05-12T16:05:53.474Z,0.65
2019-05-12T16:08:24.300Z,0.53
2019-05-12T16:10:53.577Z,0.60
2019-05-12T16:13:24.144Z,0.50
2019-05-12T16:15:57.571Z,0.60
2019-05-12T16:18:23.493Z,0.50
2019-05-12T16:20:53.566Z,0.53
2019-05-12T16:23:24.993Z,0.80
2019-05-12T16:25:54.129Z,0.50
2019-05-12T16:28:25.929Z,0.70
2019-05-12T16:30:53.622Z,0.50
2019-05-12T16:33:22.134Z,0.50
2019-05-12T16:35:50.567Z,0.60
2019-05-12T16:38:20.209Z,0.33
2019-05-12T16:40:49.932Z,0.40
2019-05-12T16:43:18.624Z,0.50
2019-05-12T16:45:47.132Z,0.40
2019-05-12T16:48:29.490Z,0.30
2019-05-12T16:50:45.664Z,0.50
2019-05-12T16:53:21.669Z,0.40
2019-05-12T16:55:48.096Z,0.50
2019-05-12T16:58:14.218Z,0.30
2019-05-12T17:00:45.286Z,0.40
2019-05-12T17:03:14.512Z,0.50
2019-05-12T17:05:42.947Z,0.40
2019-05-12T17:08:13.942Z,0.60
2019-05-12T17:10:49.069Z,0.47
2019-05-12T17:13:13.736Z,0.33
2019-05-12T17:15:43.305Z,0.35
2019-05-12T17:18:13.573Z,0.50
2019-05-12T17:20:49.313Z,0.30
2019-05-12T17:23:13.853Z,0.50
2019-05-12T17:25:42.084Z,0.40
2019-05-12T17:28:10.520Z,0.57
2019-05-12T17:30:38.943Z,0.62
2019-05-12T17:33:07.519Z,0.57
2019-05-12T17:35:35.944Z,0.90
2019-05-12T17:38:04.556Z,1.60
2019-05-12T17:40:33.857Z,1.10
2019-05-12T17:43:06.792Z,0.60
2019-05-12T17:45:32.756Z,0.50
2019-05-12T17:48:06.793Z,0.50
2019-05-12T17:50:34.440Z,0.30
2019-05-12T17:53:04.465Z,0.42
2019-05-12T17:55:32.617Z,0.50
2019-05-12T17:58:03.958Z,0.50
2019-05-12T18:00:33.598Z,0.50
2019-05-12T18:03:15.644Z,0.70
2019-05-12T18:05:33.878Z,0.80
2019-05-12T18:08:04.356Z,1.00
2019-05-12T18:10:37.784Z,0.70
2019-05-12T18:13:03.880Z,1.20
2019-05-12T18:15:37.528Z,0.85
2019-05-12T18:18:04.106Z,0.90
2019-05-12T18:20:40.022Z,0.78
2019-05-12T18:23:04.339Z,0.75
2019-05-12T18:25:32.890Z,0.50
2019-05-12T18:28:03.587Z,0.50
2019-05-12T18:30:31.349Z,0.40
2019-05-12T18:33:04.282Z,0.50
2019-05-12T18:35:29.854Z,0.50
2019-05-12T18:37:58.296Z,0.62
2019-05-12T18:40:28.188Z,0.53
2019-05-12T18:42:56.827Z,0.60
2019-05-12T18:45:25.373Z,0.90
2019-05-12T18:47:53.969Z,0.60
2019-05-12T18:50:29.283Z,0.53
2019-05-12T18:52:52.484Z,0.85
2019-05-12T18:55:20.784Z,0.60
2019-05-12T18:57:50.102Z,0.40
2019-05-12T19:00:20.343Z,0.90
2019-05-12T19:02:51.040Z,0.98
2019-05-12T19:05:29.710Z,0.90
2019-05-12T19:07:50.621Z,0.80
2019-05-12T19:10:18.961Z,0.90
2019-05-12T19:12:51.608Z,0.90
2019-05-12T19:15:21.892Z,0.75
2019-05-12T19:17:47.599Z,0.80
2019-05-12T19:20:19.117Z,1.10
2019-05-12T19:22:56.139Z,1.05
2019-05-12T19:25:19.213Z,1.15
2019-05-12T19:27:49.665Z,1.42
2019-05-12T19:30:19.429Z,1.05
2019-05-12T19:32:46.312Z,1.22
2019-05-12T19:35:19.902Z,1.50
2019-05-12T19:37:45.339Z,1.50
2019-05-12T19:40:17.107Z,1.52
2019-05-12T19:42:44.036Z,1.32
2019-05-12T19:45:21.276Z,1.20
2019-05-12T19:47:44.278Z,1.32
2019-05-12T19:50:18.225Z,1.22
2019-05-12T19:52:43.463Z,1.37
2019-05-12T19:55:13.924Z,1.60
2019-05-12T19:57:44.270Z,1.05
2019-05-12T20:00:13.830Z,1.45
2019-05-12T20:02:42.633Z,1.60
2019-05-12T20:05:14.271Z,1.80
2019-05-12T20:07:41.182Z,1.25
2019-05-12T20:10:12.804Z,1.50
2019-05-12T20:12:40.147Z,1.40
2019-05-12T20:15:08.707Z,0.95
2019-05-12T20:17:37.083Z,1.10
2019-05-12T20:20:05.511Z,1.10
2019-05-12T20:22:33.895Z,0.93
2019-05-12T20:25:04.270Z,0.90
2019-05-12T20:27:34.524Z,0.90
2019-05-12T20:30:08.994Z,0.88
2019-05-12T20:32:34.415Z,0.80
2019-05-12T20:35:22.396Z,0.70
2019-05-12T20:37:56.926Z,0.60
2019-05-12T20:40:20.874Z,0.80
2019-05-12T20:43:07.310Z,0.80
2019-05-12T20:45:23.563Z,0.82
2019-05-12T20:47:50.524Z,0.80
2019-05-12T20:50:24.180Z,0.82
2019-05-12T20:52:53.487Z,0.93
2019-05-12T20:55:19.128Z,0.93
2019-05-12T20:57:56.075Z,1.00
2019-05-12T21:00:17.727Z,0.98
2019-05-12T21:02:46.057Z,1.00
2019-05-12T21:05:19.864Z,0.70
2019-05-12T21:07:44.630Z,0.80
2019-05-12T21:10:14.794Z,0.80
2019-05-12T21:12:50.047Z,0.70
2019-05-12T21:15:20.719Z,0.82
2019-05-12T21:17:58.394Z,0.80
2019-05-12T21:20:18.847Z,0.90
2019-05-12T21:22:47.378Z,1.10
2019-05-12T21:25:15.782Z,1.00
2019-05-12T21:27:47.612Z,1.00
2019-05-12T21:30:15.955Z,1.07
2019-05-12T21:32:47.077Z,1.00
2019-05-12T21:35:21.781Z,1.00
2019-05-12T21:37:46.261Z,1.00
2019-05-12T21:40:15.027Z,1.40
2019-05-12T21:42:44.710Z,1.02
2019-05-12T21:45:14.617Z,1.07
2019-05-12T21:47:44.595Z,2.52
2019-05-12T21:50:14.035Z,0.88
2019-05-12T21:52:44.547Z,1.17
2019-05-12T21:55:21.266Z,1.00
2019-05-12T21:57:43.713Z,1.10
2019-05-12T22:00:34.117Z,3.65
2019-05-12T22:03:08.175Z,1.55
2019-05-12T22:05:48.054Z,1.05
2019-05-12T22:08:06.412Z,0.90
2019-05-12T22:10:34.446Z,1.00
2019-05-12T22:13:06.861Z,1.10
2019-05-12T22:15:34.107Z,1.05
2019-05-12T22:18:04.797Z,1.10
2019-05-12T22:20:35.597Z,1.30
2019-05-12T22:23:09.101Z,1.37
2019-05-12T22:25:34.631Z,1.20
2019-05-12T22:28:07.806Z,1.15
2019-05-12T22:30:34.891Z,0.88
2019-05-12T22:33:08.306Z,1.10
2019-05-12T22:35:33.648Z,1.10
2019-05-12T22:38:09.143Z,1.17
2019-05-12T22:40:32.316Z,1.30
2019-05-12T22:43:01.459Z,2.72
2019-05-12T22:45:36.047Z,1.50
2019-05-12T22:48:00.877Z,1.20
2019-05-12T22:50:32.978Z,3.22
2019-05-12T22:52:59.378Z,1.70
2019-05-12T22:55:32.548Z,1.20
2019-05-12T22:57:57.925Z,1.20
2019-05-12T23:00:26.321Z,2.00
2019-05-12T23:02:54.773Z,1.50
2019-05-12T23:05:24.168Z,1.20
2019-05-12T23:07:54.431Z,1.92
2019-05-12T23:10:22.724Z,1.82
2019-05-12T23:12:56.977Z,1.52
2019-05-12T23:15:21.114Z,1.50
2019-05-12T23:17:49.591Z,1.50
2019-05-12T23:20:18.030Z,1.52
2019-05-12T23:22:47.033Z,1.62
2019-05-12T23:25:20.058Z,1.20
2019-05-12T23:27:46.834Z,1.50
2019-05-12T23:30:15.866Z,1.50
2019-05-12T23:32:51.526Z,1.30
2019-05-12T23:35:14.600Z,1.20
2019-05-12T23:37:44.095Z,1.35
2019-05-12T23:40:16.412Z,1.35
2019-05-12T23:42:44.585Z,1.27
2019-05-12T23:45:14.008Z,1.50
2019-05-12T23:47:43.991Z,1.07
2019-05-12T23:50:14.280Z,1.20
2019-05-12T23:52:44.121Z,1.35
2019-05-12T23:55:13.693Z,2.00
2019-05-12T23:57:44.391Z,1.37
